Eddiceton, Mississippi
Current Conditions -  °F | °C
As of 8:20 PM on Thursday 18 Dec 2014 (Local Time) from KMCB Reporting Station
Haze Haze  
Wind Chill: 51°   Ceiling: 900
Heat Index: 51°   Visibility: 6mi
Dew Point: 49°   Wind: 3mph
Humidity: 92%   Direction: NA
Pressure: 30.15"   Gusts: NA
Location:  31.5295°N, 90.7634°W
Report Text: KMCB 190220Z AUTO VRB03KT 6SM BR OVC009 11/09 A3015 RMK AO2 T01060094 $
Loading
Personal Weather Stations






























Interactive Weather Map New forecast layout! Learn more

10-Day Weather Forecast

Advertisements
Track Severe Weather on mobile